Airfield :
LOGIN :

Register | Disclaimer

   EN    FR    IT 

 










Legend :    VFR   Marginal VFR   IFR   Intensive IFR   Very Intensive IFR
Visi :
Ceiling :
>= 8 km
>= 3000ft
5 to 8 km
1000 to 3000 ft
1500m to 5 km
500 to 1000 ft
800 to 1500m
200 to 500 ft
< 800m
< 200 ft
Symbols :   Thunderstorms  Fog  Heavy snow  Heavy precipitations  Wind > 20 kt
SIGMETs :     Misc.  Thunderstorms  Icing  Turbulence  Mountain Waves  Volcanic Ashes






- Airport Elevation : 404 ft
- IATA code : WRO


EPWR - Wroclaw

CURRENT METAR :
  • 270800Z 22004KT CAVOK 01/M01 Q0994

EXPIRED METARs :
  • 270730Z 23004KT 8000 NSC M01/M01 Q0994
  • 270700Z VRB01KT 5000 MIFG BR FEW037 M01/M01 Q0994
  • 270630Z 19003KT 160V220 5000 BR SCT037 01/00 Q0994
  • 270600Z 12005KT 4000 BR BKN037 00/00 Q0993

TAF TAF EPWR
Valid from the 27 at 09:00 until the 28 at 09:00 UTC


270830Z 2709/2809 18006KT CAVOK
BECMG 2801/2803 2500 BR
BECMG 2803/2806 1200 BR OVC006
BECMG 2807/2809 SN OVC002
TEMPO 2808/2809 0600 +SN OVC001



MET'MAP, your aeronautical weather chart ! - Copyright ORBIFLY December 2007 - Disclaimer

ORBIFLY MET'MAP TEAM :

Programming & Development : Alexandra Zaïnal
Concept & original design : Baudouin d'Aumeries
Assistance for programming : Marc-Olivier Méhu
Technical & hardware support : Manuel Goepfert

Contact : metmap@orbifly.com




SOURCES & CREDITS :

   NOAA